VRMM/MLE METAR and TAF weather

Enter ICAO airport designator
Station Type Date Time Source
VRMM METAR 2019/12/09 13:00 UTC NOAA

VRMM 091300Z 08012KT 9999 SCT018TCU 30/25 Q1009 NOSIG


Station Type Date Time Source
VRMM Decoded METAR 2019/12/09 13:00 UTC NOAA

Male, Maldives (VRMM) 04-12N 073-32E 2M
Dec 09, 2019 - 08:00 AM EST / 2019.12.09 1300 UTC
Wind: from the E (080 degrees) at 14 MPH (12 KT):0
Visibility: greater than 7 mile(s):0
Sky conditions: partly cloudy
Weather: Towering cumulus clouds observed
Temperature: 86 F (30 C)
Heat index: 96.8 F (36.0 C):1
Dew Point: 77 F (25 C)
Relative Humidity: 74%
Pressure (altimeter): 29.80 in. Hg (1009 hPa)
ob: VRMM 091300Z 08012KT 9999 SCT018TCU 30/25 Q1009 NOSIG
cycle: 13

Station Type Date Time Source
VRMM TAF 2019/12/09 12:09 UTC NOAA

TAF TAF VRMM 091100Z 0912/1018 09018KT 9999 FEW018TCU
TEMPO 0914/0920 5000 -SHRA FEW017CB

Example: see airport list